createdAt,value
2023-01-07T00:01:07.832Z,3.37
2023-01-07T00:03:35.024Z,3.10
2023-01-07T00:06:02.450Z,3.50
2023-01-07T00:08:30.831Z,3.23
2023-01-07T00:11:00.679Z,2.93
2023-01-07T00:13:28.434Z,3.13
2023-01-07T00:16:03.763Z,3.30
2023-01-07T00:18:30.528Z,3.10
2023-01-07T00:20:58.340Z,3.00
2023-01-07T00:23:25.526Z,3.80
2023-01-07T00:25:52.591Z,3.07
2023-01-07T00:28:19.103Z,3.20
2023-01-07T00:30:45.553Z,2.97
2023-01-07T00:33:14.442Z,3.47
2023-01-07T00:35:41.329Z,3.23
2023-01-07T00:38:07.837Z,2.70
2023-01-07T00:40:34.305Z,2.93
2023-01-07T00:43:07.062Z,3.20
2023-01-07T00:45:35.710Z,3.27
2023-01-07T00:48:03.793Z,2.93
2023-01-07T00:50:32.827Z,3.20
2023-01-07T00:52:59.434Z,2.80
2023-01-07T00:55:26.415Z,2.70
2023-01-07T00:57:53.726Z,3.00
2023-01-07T01:00:21.675Z,3.33
2023-01-07T01:02:48.788Z,2.60
2023-01-07T01:05:15.748Z,3.20
2023-01-07T01:07:42.405Z,2.80
2023-01-07T01:10:12.319Z,2.90
2023-01-07T01:12:39.179Z,3.00
2023-01-07T01:15:08.424Z,3.10
2023-01-07T01:17:34.904Z,2.93
2023-01-07T01:20:01.603Z,2.70
2023-01-07T01:22:28.486Z,2.30
2023-01-07T01:24:54.948Z,2.67
2023-01-07T01:27:21.428Z,2.87
2023-01-07T01:29:47.872Z,2.80
2023-01-07T01:32:14.412Z,2.50
2023-01-07T01:34:40.872Z,2.73
2023-01-07T01:37:07.408Z,2.60
2023-01-07T01:39:33.920Z,2.70
2023-01-07T01:42:00.460Z,3.07
2023-01-07T01:44:36.964Z,2.73
2023-01-07T01:47:13.502Z,2.73
2023-01-07T01:49:42.690Z,2.70
2023-01-07T01:52:15.759Z,2.37
2023-01-07T01:54:47.513Z,2.73
2023-01-07T01:57:16.897Z,1.97
2023-01-07T01:59:45.586Z,1.80
2023-01-07T02:02:12.883Z,2.17
2023-01-07T02:04:39.453Z,2.20
2023-01-07T02:07:10.610Z,2.07
2023-01-07T02:09:37.126Z,1.87
2023-01-07T02:12:14.554Z,1.90
2023-01-07T02:15:15.226Z,2.30
2023-01-07T02:18:09.563Z,1.93
2023-01-07T02:20:55.279Z,2.30
2023-01-07T02:23:36.942Z,2.40
2023-01-07T02:26:09.434Z,2.37
2023-01-07T02:28:47.324Z,2.30
2023-01-07T02:31:44.031Z,2.20
2023-01-07T02:34:25.048Z,2.23
2023-01-07T02:37:03.450Z,2.50
2023-01-07T02:40:06.580Z,2.40
2023-01-07T02:42:41.132Z,2.43
2023-01-07T02:45:27.083Z,2.40
2023-01-07T02:47:57.168Z,2.50
2023-01-07T02:50:23.681Z,2.53
2023-01-07T02:52:50.124Z,2.80
2023-01-07T02:55:32.639Z,2.72
2023-01-07T02:58:34.501Z,2.65
2023-01-07T03:01:13.503Z,2.60
2023-01-07T03:04:03.645Z,2.60
2023-01-07T03:06:54.539Z,2.53
2023-01-07T03:09:50.705Z,2.22
2023-01-07T03:12:42.179Z,2.63
2023-01-07T03:15:17.012Z,2.80
2023-01-07T03:17:54.161Z,2.25
2023-01-07T03:20:22.701Z,2.10
2023-01-07T03:22:49.651Z,2.38
2023-01-07T03:25:17.624Z,2.22
2023-01-07T03:27:47.073Z,2.05
2023-01-07T03:30:15.947Z,2.00
2023-01-07T03:32:46.032Z,1.98
2023-01-07T03:35:13.173Z,2.10
2023-01-07T03:37:41.843Z,2.10
2023-01-07T03:40:10.779Z,1.92
2023-01-07T03:42:39.917Z,1.98
2023-01-07T03:45:25.766Z,1.92
2023-01-07T03:47:53.690Z,1.85
2023-01-07T03:50:20.569Z,2.30
2023-01-07T03:52:48.629Z,2.47
2023-01-07T03:55:15.259Z,2.13
2023-01-07T03:57:41.710Z,2.20
2023-01-07T04:00:10.069Z,2.30
2023-01-07T04:02:36.679Z,2.45
2023-01-07T04:05:03.410Z,2.45
2023-01-07T04:07:29.874Z,2.13
2023-01-07T04:09:56.364Z,2.50
2023-01-07T04:12:22.847Z,2.72
2023-01-07T04:14:49.341Z,2.83
2023-01-07T04:17:15.816Z,2.65
2023-01-07T04:19:42.309Z,2.70
2023-01-07T04:22:12.071Z,2.63
2023-01-07T04:24:38.548Z,2.80
2023-01-07T04:27:05.082Z,2.63
2023-01-07T04:29:31.576Z,2.83
2023-01-07T04:31:58.096Z,2.90
2023-01-07T04:34:24.747Z,2.15
2023-01-07T04:36:51.498Z,2.53
2023-01-07T04:39:18.292Z,2.63
2023-01-07T04:41:44.924Z,2.38
2023-01-07T04:44:11.688Z,2.10
2023-01-07T04:46:38.253Z,2.20
2023-01-07T04:49:04.793Z,2.15
2023-01-07T04:51:31.344Z,2.10
2023-01-07T04:53:58.414Z,2.10
2023-01-07T04:56:24.925Z,2.00
2023-01-07T04:58:51.421Z,1.70
2023-01-07T05:01:18.191Z,2.03
2023-01-07T05:03:44.688Z,2.05
2023-01-07T05:06:11.389Z,1.73
2023-01-07T05:08:37.933Z,2.00
2023-01-07T05:11:05.222Z,1.83
2023-01-07T05:13:32.054Z,1.77
2023-01-07T05:15:58.583Z,2.03
2023-01-07T05:18:25.029Z,1.70
2023-01-07T05:20:51.490Z,2.00
2023-01-07T05:23:17.966Z,1.80
2023-01-07T05:25:44.425Z,1.63
2023-01-07T05:28:12.064Z,1.57
2023-01-07T05:30:39.590Z,1.37
2023-01-07T05:33:07.335Z,1.40
2023-01-07T05:35:35.031Z,1.83
2023-01-07T05:38:01.544Z,1.57
2023-01-07T05:40:28.127Z,1.47
2023-01-07T05:42:54.644Z,1.60
2023-01-07T05:45:21.877Z,1.37
2023-01-07T05:47:48.697Z,1.40
2023-01-07T05:50:15.182Z,1.80
2023-01-07T05:52:41.649Z,1.63
2023-01-07T05:55:08.648Z,1.30
2023-01-07T05:57:35.139Z,1.50
2023-01-07T06:00:01.624Z,1.67
2023-01-07T06:02:28.112Z,1.70
2023-01-07T06:04:54.624Z,1.97
2023-01-07T06:07:21.105Z,1.63
2023-01-07T06:09:47.681Z,1.73
2023-01-07T06:12:14.149Z,2.20
2023-01-07T06:14:40.613Z,2.10
2023-01-07T06:17:07.092Z,2.20
2023-01-07T06:19:33.606Z,1.87
2023-01-07T06:22:00.110Z,2.10
2023-01-07T06:24:26.783Z,2.00
2023-01-07T06:26:53.267Z,2.00
2023-01-07T06:29:19.790Z,1.83
2023-01-07T06:31:46.260Z,2.03
2023-01-07T06:34:12.759Z,1.80
2023-01-07T06:36:39.216Z,1.70
2023-01-07T06:39:05.703Z,1.77
2023-01-07T06:41:32.163Z,1.87
2023-01-07T06:43:58.626Z,1.70
2023-01-07T06:46:25.313Z,1.77
2023-01-07T06:48:51.808Z,1.70
2023-01-07T06:51:18.288Z,1.60
2023-01-07T06:53:44.909Z,1.67
2023-01-07T06:56:11.420Z,1.70
2023-01-07T06:58:37.894Z,1.80
2023-01-07T07:01:08.407Z,2.07
2023-01-07T07:03:35.071Z,2.20
2023-01-07T07:06:01.559Z,2.30
2023-01-07T07:08:28.290Z,2.07
2023-01-07T07:10:54.769Z,2.00
2023-01-07T07:13:21.228Z,2.30
2023-01-07T07:15:48.859Z,2.27
2023-01-07T07:18:16.438Z,2.27
2023-01-07T07:20:42.891Z,2.63
2023-01-07T07:23:09.347Z,2.70
2023-01-07T07:25:35.841Z,2.55
2023-01-07T07:28:02.280Z,2.67
2023-01-07T07:30:45.941Z,2.40
2023-01-07T07:33:15.277Z,2.77
2023-01-07T07:35:42.208Z,3.37
2023-01-07T07:38:08.661Z,3.00
2023-01-07T07:40:35.175Z,3.47
2023-01-07T07:43:11.082Z,3.22
2023-01-07T07:45:40.493Z,2.93
2023-01-07T07:48:07.999Z,3.07
2023-01-07T07:50:35.329Z,3.88
2023-01-07T07:53:01.883Z,3.93
2023-01-07T07:55:28.457Z,4.40
2023-01-07T07:57:55.917Z,4.03
2023-01-07T08:00:22.984Z,4.57
2023-01-07T08:02:49.428Z,4.10
2023-01-07T08:05:16.107Z,3.47
2023-01-07T08:07:42.683Z,3.53
2023-01-07T08:10:09.374Z,4.07
2023-01-07T08:12:39.346Z,3.88
2023-01-07T08:15:07.243Z,3.60
2023-01-07T08:17:34.300Z,3.95
2023-01-07T08:20:00.768Z,3.78
2023-01-07T08:22:27.280Z,3.80
2023-01-07T08:24:53.781Z,3.80
2023-01-07T08:27:20.326Z,3.85
2023-01-07T08:29:47.089Z,3.83
2023-01-07T08:32:13.615Z,3.50
2023-01-07T08:34:40.104Z,3.70
2023-01-07T08:37:06.572Z,3.80
2023-01-07T08:39:33.046Z,4.25
2023-01-07T08:41:59.514Z,3.90
2023-01-07T08:44:25.995Z,4.18
2023-01-07T08:46:53.339Z,4.80
2023-01-07T08:49:19.882Z,4.35
2023-01-07T08:51:46.340Z,4.50
2023-01-07T08:54:12.833Z,4.93
2023-01-07T08:56:39.285Z,5.65
2023-01-07T08:59:05.846Z,6.30
2023-01-07T09:01:32.430Z,7.47
2023-01-07T09:03:59.072Z,6.03
2023-01-07T09:06:25.703Z,4.70
2023-01-07T09:08:52.187Z,4.43
2023-01-07T09:11:18.665Z,4.85
2023-01-07T09:13:45.155Z,5.47
2023-01-07T09:16:11.725Z,6.07
2023-01-07T09:18:38.260Z,6.78
2023-01-07T09:21:04.885Z,7.22
2023-01-07T09:23:31.381Z,6.78
2023-01-07T09:25:57.908Z,6.60
2023-01-07T09:28:24.413Z,6.15
2023-01-07T09:30:50.882Z,5.00
2023-01-07T09:33:17.337Z,5.10
2023-01-07T09:35:43.802Z,5.70
2023-01-07T09:38:10.419Z,4.90
2023-01-07T09:40:40.058Z,5.28
2023-01-07T09:43:14.348Z,5.47
2023-01-07T09:45:43.311Z,6.15
2023-01-07T09:48:19.361Z,5.32
2023-01-07T09:51:08.093Z,4.60
2023-01-07T09:53:38.462Z,4.32
2023-01-07T09:56:12.500Z,4.70
2023-01-07T09:58:42.446Z,4.60
2023-01-07T10:01:24.246Z,4.85
2023-01-07T10:04:12.856Z,4.65
2023-01-07T10:06:45.197Z,4.53
2023-01-07T10:09:36.438Z,4.80
2023-01-07T10:12:17.120Z,4.22
2023-01-07T10:14:56.879Z,4.25
2023-01-07T10:17:49.701Z,4.60
2023-01-07T10:20:25.373Z,3.97
2023-01-07T10:23:04.936Z,4.20
2023-01-07T10:25:35.965Z,4.20
2023-01-07T10:28:09.792Z,4.25
2023-01-07T10:30:41.816Z,4.30
2023-01-07T10:33:21.083Z,4.00
2023-01-07T10:35:49.273Z,4.45
2023-01-07T10:38:19.393Z,4.50
2023-01-07T10:40:53.423Z,3.72
2023-01-07T10:43:35.175Z,3.17
2023-01-07T10:46:12.317Z,3.35
2023-01-07T10:49:16.533Z,2.60
2023-01-07T10:52:04.216Z,2.60
2023-01-07T10:54:49.402Z,2.20
2023-01-07T10:57:21.500Z,2.42
2023-01-07T10:59:50.933Z,1.98
2023-01-07T11:02:20.192Z,1.80
2023-01-07T11:04:46.878Z,1.95
2023-01-07T11:07:30.491Z,1.88
2023-01-07T11:10:00.662Z,1.98
2023-01-07T11:12:36.638Z,1.40
2023-01-07T11:15:06.909Z,1.30
2023-01-07T11:17:39.833Z,1.25
2023-01-07T11:20:07.038Z,1.30
2023-01-07T11:22:37.451Z,1.10
2023-01-07T11:25:29.699Z,0.80
2023-01-07T11:28:01.795Z,1.00
2023-01-07T11:30:30.879Z,1.20
2023-01-07T11:33:03.681Z,1.00
2023-01-07T11:35:30.467Z,0.80
2023-01-07T11:37:58.296Z,1.10
2023-01-07T11:40:27.720Z,1.13
2023-01-07T11:43:00.235Z,1.23
2023-01-07T11:45:35.553Z,1.00
2023-01-07T11:48:05.022Z,1.27
2023-01-07T11:50:42.927Z,0.90
2023-01-07T11:53:15.337Z,0.90
2023-01-07T11:55:57.245Z,1.05
2023-01-07T11:58:30.958Z,0.82
2023-01-07T12:01:10.250Z,0.95
2023-01-07T12:03:40.568Z,0.80
2023-01-07T12:06:13.995Z,0.95
2023-01-07T12:08:42.754Z,0.70
2023-01-07T12:11:11.463Z,0.88
2023-01-07T12:13:40.083Z,0.88
2023-01-07T12:16:08.040Z,0.95
2023-01-07T12:19:03.732Z,0.70
2023-01-07T12:21:35.726Z,0.80
2023-01-07T12:24:20.894Z,0.80
2023-01-07T12:26:55.136Z,0.63
2023-01-07T12:30:09.584Z,0.65
2023-01-07T12:32:45.053Z,0.90
2023-01-07T12:35:19.169Z,0.65
2023-01-07T12:38:03.269Z,0.70
2023-01-07T12:40:35.756Z,0.60
2023-01-07T12:43:13.495Z,0.65
2023-01-07T12:45:43.363Z,0.63
2023-01-07T12:48:30.787Z,0.50
2023-01-07T12:50:59.218Z,0.50
2023-01-07T12:53:36.682Z,0.50
2023-01-07T12:56:14.572Z,0.60
2023-01-07T12:58:48.298Z,0.30
2023-01-07T13:01:58.834Z,0.30
2023-01-07T13:04:34.563Z,0.40
2023-01-07T13:07:23.871Z,0.50
2023-01-07T13:10:07.250Z,0.30
2023-01-07T13:12:43.448Z,0.50
2023-01-07T13:15:15.144Z,0.50
2023-01-07T13:17:41.680Z,0.50
2023-01-07T13:20:16.047Z,0.50
2023-01-07T13:22:54.986Z,0.68
2023-01-07T13:25:42.021Z,0.57
2023-01-07T13:28:24.830Z,0.50
2023-01-07T13:31:06.145Z,0.43
2023-01-07T13:33:57.747Z,0.65
2023-01-07T13:36:38.931Z,0.60
2023-01-07T13:39:27.254Z,0.60
2023-01-07T13:42:02.135Z,0.50
2023-01-07T13:44:54.566Z,0.50
2023-01-07T13:47:23.557Z,0.30
2023-01-07T13:49:58.178Z,0.50
2023-01-07T13:52:30.513Z,0.30
2023-01-07T13:54:59.629Z,0.40
2023-01-07T13:57:25.915Z,0.30
2023-01-07T13:59:56.421Z,0.35
2023-01-07T14:02:24.845Z,0.50
2023-01-07T14:04:52.323Z,0.50
2023-01-07T14:07:19.341Z,0.32
2023-01-07T14:09:46.373Z,0.40
2023-01-07T14:12:25.529Z,0.45
2023-01-07T14:15:17.975Z,0.65
2023-01-07T14:18:04.483Z,0.47
2023-01-07T14:20:44.082Z,0.70
2023-01-07T14:23:32.531Z,0.75
2023-01-07T14:26:10.832Z,1.00
2023-01-07T14:29:05.203Z,0.57
2023-01-07T14:31:31.784Z,0.60
2023-01-07T14:34:07.069Z,0.50
2023-01-07T14:37:04.805Z,0.60
2023-01-07T14:39:35.108Z,0.70
2023-01-07T14:42:16.731Z,0.60
2023-01-07T14:44:43.178Z,0.70
2023-01-07T14:47:13.940Z,0.60
2023-01-07T14:50:02.396Z,0.45
2023-01-07T14:52:39.303Z,0.50
2023-01-07T14:55:26.422Z,0.70
2023-01-07T14:58:12.521Z,0.65
2023-01-07T15:01:07.943Z,0.43
2023-01-07T15:03:52.494Z,0.50
2023-01-07T15:06:25.750Z,0.50
2023-01-07T15:09:21.358Z,0.73
2023-01-07T15:12:07.909Z,0.75
2023-01-07T15:15:04.048Z,0.60
2023-01-07T15:17:30.987Z,0.90
2023-01-07T15:19:58.088Z,0.85
2023-01-07T15:22:49.532Z,1.00
2023-01-07T15:25:44.112Z,0.70
2023-01-07T15:28:22.338Z,0.88
2023-01-07T15:30:54.733Z,1.00
2023-01-07T15:33:53.409Z,1.00
2023-01-07T15:36:20.063Z,1.02
2023-01-07T15:38:50.725Z,1.00
2023-01-07T15:41:26.405Z,0.82
2023-01-07T15:43:53.232Z,1.08
2023-01-07T15:46:20.068Z,1.05
2023-01-07T15:49:03.772Z,0.93
2023-01-07T15:51:38.269Z,1.00
2023-01-07T15:54:09.355Z,1.35
2023-01-07T15:56:36.154Z,1.27
2023-01-07T15:59:07.339Z,1.00
2023-01-07T16:01:34.269Z,1.02
2023-01-07T16:04:00.799Z,0.90
2023-01-07T16:06:27.534Z,1.23
2023-01-07T16:08:54.032Z,1.08
2023-01-07T16:11:25.826Z,0.73
2023-01-07T16:14:00.675Z,0.90
2023-01-07T16:16:28.757Z,1.00
2023-01-07T16:19:00.601Z,1.30
2023-01-07T16:21:35.255Z,1.33
2023-01-07T16:24:01.745Z,2.33
2023-01-07T16:27:06.425Z,1.90
2023-01-07T16:29:36.945Z,2.03
2023-01-07T16:32:06.655Z,1.52
2023-01-07T16:34:32.947Z,1.33
2023-01-07T16:37:00.301Z,0.95
2023-01-07T16:39:32.251Z,1.13
2023-01-07T16:42:17.233Z,2.17
2023-01-07T16:44:44.313Z,2.67
2023-01-07T16:47:19.058Z,1.67
2023-01-07T16:49:45.732Z,1.13
2023-01-07T16:52:14.228Z,1.20
2023-01-07T16:54:44.634Z,0.95
2023-01-07T16:57:10.948Z,1.10
2023-01-07T16:59:45.744Z,1.40
2023-01-07T17:02:28.720Z,1.30
2023-01-07T17:05:23.268Z,1.30
2023-01-07T17:07:52.595Z,1.10
2023-01-07T17:10:25.958Z,1.23
2023-01-07T17:12:58.810Z,1.30
2023-01-07T17:15:31.427Z,1.17
2023-01-07T17:18:13.021Z,1.02
2023-01-07T17:20:53.945Z,1.27
2023-01-07T17:23:26.289Z,1.50
2023-01-07T17:26:07.654Z,1.08
2023-01-07T17:28:36.590Z,1.10
2023-01-07T17:31:03.254Z,1.00
2023-01-07T17:33:30.049Z,1.20
2023-01-07T17:35:57.585Z,1.38
2023-01-07T17:38:24.023Z,1.60
2023-01-07T17:40:50.513Z,1.30
2023-01-07T17:43:34.169Z,1.30
2023-01-07T17:46:01.274Z,1.60
2023-01-07T17:48:28.080Z,1.50
2023-01-07T17:50:57.022Z,1.60
2023-01-07T17:53:25.893Z,1.40
2023-01-07T17:55:52.542Z,1.88
2023-01-07T17:58:36.238Z,1.85
2023-01-07T18:01:06.504Z,1.48
2023-01-07T18:03:33.166Z,1.60
2023-01-07T18:05:59.589Z,2.10
2023-01-07T18:08:27.050Z,1.80
2023-01-07T18:11:13.146Z,1.95
2023-01-07T18:13:40.225Z,2.10
2023-01-07T18:16:07.201Z,2.15
2023-01-07T18:18:33.673Z,2.60
2023-01-07T18:21:00.112Z,2.58
2023-01-07T18:23:26.602Z,2.55
2023-01-07T18:25:53.034Z,2.75
2023-01-07T18:28:20.434Z,2.72
2023-01-07T18:30:47.867Z,2.60
2023-01-07T18:33:14.499Z,2.90
2023-01-07T18:35:40.893Z,3.50
2023-01-07T18:38:15.044Z,3.60
2023-01-07T18:40:42.012Z,3.60
2023-01-07T18:43:12.513Z,3.97
2023-01-07T18:45:43.258Z,4.47
2023-01-07T18:48:12.282Z,4.07
2023-01-07T18:50:45.951Z,4.20
2023-01-07T18:53:12.666Z,3.90
2023-01-07T18:55:40.746Z,3.55
2023-01-07T18:58:08.133Z,3.80
2023-01-07T19:00:34.773Z,4.15
2023-01-07T19:03:01.239Z,4.00
2023-01-07T19:05:28.063Z,4.13
2023-01-07T19:07:55.355Z,3.70
2023-01-07T19:10:25.892Z,4.00
2023-01-07T19:12:52.589Z,4.32
2023-01-07T19:15:19.106Z,4.20
2023-01-07T19:17:46.806Z,3.72
2023-01-07T19:20:15.232Z,4.25
2023-01-07T19:22:41.693Z,4.03
2023-01-07T19:25:08.969Z,4.18
2023-01-07T19:27:35.511Z,4.85
2023-01-07T19:30:01.951Z,4.65
2023-01-07T19:32:31.470Z,4.55
2023-01-07T19:34:57.883Z,5.43
2023-01-07T19:37:24.381Z,5.13
2023-01-07T19:39:51.777Z,5.35
2023-01-07T19:42:18.233Z,5.22
2023-01-07T19:44:44.643Z,5.28
2023-01-07T19:47:11.086Z,5.03
2023-01-07T19:49:37.519Z,5.40
2023-01-07T19:52:04.018Z,5.40
2023-01-07T19:54:30.448Z,4.88
2023-01-07T19:56:57.833Z,5.03
2023-01-07T19:59:25.116Z,5.00
2023-01-07T20:01:53.572Z,4.78
2023-01-07T20:04:20.250Z,5.03
2023-01-07T20:06:47.363Z,4.82
2023-01-07T20:09:13.789Z,5.60
2023-01-07T20:11:42.447Z,5.00
2023-01-07T20:14:08.963Z,5.47
2023-01-07T20:16:38.830Z,5.18
2023-01-07T20:19:05.947Z,5.40
2023-01-07T20:21:33.044Z,5.20
2023-01-07T20:23:59.553Z,5.78
2023-01-07T20:26:29.179Z,5.40
2023-01-07T20:28:57.700Z,4.90
2023-01-07T20:31:25.540Z,5.50
2023-01-07T20:33:52.180Z,4.53
2023-01-07T20:36:20.622Z,3.95
2023-01-07T20:38:47.403Z,3.88
2023-01-07T20:41:16.006Z,4.22
2023-01-07T20:43:43.540Z,3.92
2023-01-07T20:46:10.604Z,4.35
2023-01-07T20:48:37.757Z,4.32
2023-01-07T20:51:06.817Z,4.80
2023-01-07T20:53:33.241Z,4.63
2023-01-07T20:56:00.463Z,4.10
2023-01-07T20:58:30.914Z,4.55
2023-01-07T21:00:57.723Z,4.78
2023-01-07T21:03:25.568Z,4.13
2023-01-07T21:05:55.757Z,3.90
2023-01-07T21:08:22.194Z,4.38
2023-01-07T21:10:49.633Z,4.32
2023-01-07T21:13:17.059Z,4.10
2023-01-07T21:15:44.467Z,4.15
2023-01-07T21:18:11.880Z,4.68
2023-01-07T21:20:40.035Z,3.50
2023-01-07T21:23:06.827Z,3.92
2023-01-07T21:25:33.476Z,4.00
2023-01-07T21:27:59.893Z,3.33
2023-01-07T21:30:28.218Z,4.10
2023-01-07T21:32:55.939Z,3.92
2023-01-07T21:35:22.749Z,4.00
2023-01-07T21:37:52.901Z,4.30
2023-01-07T21:40:20.615Z,4.13
2023-01-07T21:42:50.037Z,3.88
2023-01-07T21:45:17.329Z,3.80
2023-01-07T21:47:43.815Z,3.83
2023-01-07T21:50:10.283Z,3.80
2023-01-07T21:52:36.958Z,3.40
2023-01-07T21:55:04.234Z,3.50
2023-01-07T21:57:31.174Z,3.15
2023-01-07T21:59:57.603Z,3.72
2023-01-07T22:02:23.991Z,3.42
2023-01-07T22:04:50.616Z,3.22
2023-01-07T22:07:18.373Z,3.17
2023-01-07T22:09:45.235Z,3.42
2023-01-07T22:12:12.055Z,3.00
2023-01-07T22:14:38.973Z,2.88
2023-01-07T22:17:07.273Z,3.28
2023-01-07T22:19:33.822Z,3.10
2023-01-07T22:22:01.248Z,3.05
2023-01-07T22:24:27.733Z,3.05
2023-01-07T22:26:55.116Z,3.15
2023-01-07T22:29:21.635Z,2.78
2023-01-07T22:31:48.202Z,3.33
2023-01-07T22:34:14.692Z,3.15
2023-01-07T22:37:10.805Z,2.85
2023-01-07T22:39:38.373Z,2.72
2023-01-07T22:42:09.502Z,2.80
2023-01-07T22:44:40.368Z,2.40
2023-01-07T22:47:08.837Z,2.83
2023-01-07T22:49:35.390Z,2.88
2023-01-07T22:52:02.282Z,3.03
2023-01-07T22:54:28.924Z,3.00
2023-01-07T22:56:55.352Z,3.17
2023-01-07T22:59:21.771Z,3.95
2023-01-07T23:01:48.234Z,3.72
2023-01-07T23:04:15.715Z,4.18
2023-01-07T23:06:42.159Z,3.60
2023-01-07T23:09:08.615Z,3.22
2023-01-07T23:11:56.889Z,3.50
2023-01-07T23:14:24.001Z,3.63
2023-01-07T23:16:51.130Z,3.70
2023-01-07T23:19:18.874Z,3.60
2023-01-07T23:21:47.118Z,3.78
2023-01-07T23:24:14.093Z,3.90
2023-01-07T23:26:41.169Z,3.55
2023-01-07T23:29:07.810Z,4.00
2023-01-07T23:31:35.165Z,4.20
2023-01-07T23:34:01.885Z,3.70
2023-01-07T23:36:28.607Z,4.35
2023-01-07T23:38:55.212Z,3.63
2023-01-07T23:41:21.657Z,4.18
2023-01-07T23:43:49.415Z,3.97
2023-01-07T23:46:15.988Z,3.90
2023-01-07T23:48:42.640Z,4.53
2023-01-07T23:51:17.011Z,4.00
2023-01-07T23:53:44.179Z,4.32
2023-01-07T23:56:10.907Z,4.20
2023-01-07T23:58:37.878Z,4.38
